createdAt,value
2023-04-26T04:02:34.222Z,4.70
2023-04-26T04:05:01.176Z,4.78
2023-04-26T04:07:27.825Z,4.97
2023-04-26T04:09:54.713Z,4.10
2023-04-26T04:12:23.022Z,5.10
2023-04-26T04:14:49.607Z,4.70
2023-04-26T04:17:16.686Z,4.80
2023-04-26T04:19:43.276Z,4.85
2023-04-26T04:22:09.860Z,4.88
2023-04-26T04:24:37.102Z,4.93
2023-04-26T04:27:05.435Z,4.55
2023-04-26T04:29:34.028Z,4.82
2023-04-26T04:32:00.942Z,4.95
2023-04-26T04:34:27.694Z,4.82
2023-04-26T04:36:54.695Z,4.57
2023-04-26T04:39:21.431Z,4.47
2023-04-26T04:41:48.748Z,4.30
2023-04-26T04:44:16.385Z,4.43
2023-04-26T04:46:44.202Z,4.80
2023-04-26T04:49:15.461Z,4.23
2023-04-26T04:51:42.001Z,5.25
2023-04-26T04:54:16.804Z,4.70
2023-04-26T04:56:44.891Z,5.05
2023-04-26T04:59:15.477Z,4.57
2023-04-26T05:01:42.164Z,5.40
2023-04-26T05:04:09.227Z,4.50
2023-04-26T05:06:36.943Z,4.78
2023-04-26T05:09:05.851Z,4.20
2023-04-26T05:11:36.212Z,4.55
2023-04-26T05:14:02.786Z,4.33
2023-04-26T05:16:29.400Z,4.53
2023-04-26T05:18:56.434Z,4.90
2023-04-26T05:21:23.620Z,4.95
2023-04-26T05:23:50.415Z,5.20
2023-04-26T05:26:17.765Z,4.80
2023-04-26T05:28:44.372Z,5.25
2023-04-26T05:31:11.665Z,4.65
2023-04-26T05:33:38.467Z,5.03
2023-04-26T05:36:05.793Z,6.03
2023-04-26T05:38:32.668Z,5.23
2023-04-26T05:40:59.254Z,5.50
2023-04-26T05:43:28.550Z,5.20
2023-04-26T05:45:57.407Z,4.18
2023-04-26T05:48:25.159Z,4.20
2023-04-26T05:50:52.641Z,4.10
2023-04-26T05:53:20.052Z,4.07
2023-04-26T05:55:46.812Z,3.63
2023-04-26T05:58:13.542Z,4.45
2023-04-26T06:00:41.213Z,5.05
2023-04-26T06:03:08.096Z,4.03
2023-04-26T06:05:38.402Z,4.05
2023-04-26T06:08:05.995Z,4.05
2023-04-26T06:10:32.897Z,3.80
2023-04-26T06:12:59.585Z,6.03
2023-04-26T06:15:28.819Z,4.17
2023-04-26T06:17:55.458Z,4.50
2023-04-26T06:20:22.300Z,4.28
2023-04-26T06:22:49.116Z,4.53
2023-04-26T06:25:16.474Z,4.20
2023-04-26T06:27:43.247Z,3.40
2023-04-26T06:30:10.558Z,4.40
2023-04-26T06:32:39.264Z,3.75
2023-04-26T06:35:06.695Z,4.40
2023-04-26T06:37:33.431Z,3.75
2023-04-26T06:39:59.992Z,3.53
2023-04-26T06:42:27.059Z,3.55
2023-04-26T06:44:53.591Z,3.33
2023-04-26T06:47:20.221Z,3.30
2023-04-26T06:49:46.782Z,3.05
2023-04-26T06:52:16.024Z,4.17
2023-04-26T06:54:53.548Z,3.72
2023-04-26T06:57:23.372Z,3.47
2023-04-26T06:59:50.062Z,3.60
2023-04-26T07:02:16.654Z,3.50
2023-04-26T07:04:44.995Z,3.77
2023-04-26T07:07:13.406Z,3.50
2023-04-26T07:09:41.098Z,3.00
2023-04-26T07:12:08.733Z,3.20
2023-04-26T07:14:43.337Z,3.15
2023-04-26T07:17:10.742Z,3.30
2023-04-26T07:19:37.559Z,3.22
2023-04-26T07:22:04.945Z,3.30
2023-04-26T07:24:31.530Z,3.95
2023-04-26T07:26:58.036Z,3.85
2023-04-26T07:29:24.802Z,4.03
2023-04-26T07:31:52.725Z,4.40
2023-04-26T07:34:19.756Z,3.72
2023-04-26T07:36:46.318Z,4.38
2023-04-26T07:39:15.997Z,4.20
2023-04-26T07:41:43.846Z,3.80
2023-04-26T07:44:11.265Z,3.78
2023-04-26T07:46:37.841Z,3.20
2023-04-26T07:49:04.472Z,2.97
2023-04-26T07:51:31.804Z,3.10
2023-04-26T07:53:58.671Z,3.33
2023-04-26T07:56:25.230Z,3.17
2023-04-26T07:58:51.849Z,4.10
2023-04-26T08:01:18.542Z,3.72
2023-04-26T08:03:49.319Z,3.30
2023-04-26T08:06:16.807Z,2.80
2023-04-26T08:08:44.948Z,2.53
2023-04-26T08:11:12.249Z,1.58
2023-04-26T08:13:38.813Z,7.07
2023-04-26T08:16:10.096Z,1.35
2023-04-26T08:18:36.885Z,1.30
2023-04-26T08:21:04.139Z,1.20
2023-04-26T08:23:36.526Z,1.10
2023-04-26T08:26:03.648Z,1.67
2023-04-26T08:28:33.099Z,4.28
2023-04-26T08:30:59.799Z,2.60
2023-04-26T08:33:26.416Z,2.00
2023-04-26T08:35:53.735Z,1.60
2023-04-26T08:38:22.845Z,1.70
2023-04-26T08:40:51.324Z,1.83
2023-04-26T08:43:17.882Z,1.87
2023-04-26T08:45:47.468Z,1.42
2023-04-26T08:48:16.122Z,1.63
2023-04-26T08:50:47.500Z,1.45
2023-04-26T08:53:16.130Z,1.30
2023-04-26T08:55:47.290Z,1.33
2023-04-26T08:58:14.563Z,1.40
2023-04-26T09:00:44.015Z,1.13
2023-04-26T09:03:11.768Z,1.13
2023-04-26T09:05:44.399Z,1.10
2023-04-26T09:08:17.576Z,1.40
2023-04-26T09:10:45.492Z,1.20
2023-04-26T09:13:12.477Z,1.20
2023-04-26T09:15:39.623Z,1.20
2023-04-26T09:18:23.276Z,2.20
2023-04-26T09:21:09.208Z,1.23
2023-04-26T09:23:35.930Z,1.20
2023-04-26T09:26:19.504Z,1.30
2023-04-26T09:28:49.136Z,1.60
2023-04-26T09:31:38.369Z,1.65
2023-04-26T09:34:05.314Z,1.27
2023-04-26T09:36:32.314Z,1.23
2023-04-26T09:38:59.241Z,1.70
2023-04-26T09:41:42.781Z,1.50
2023-04-26T09:44:23.672Z,2.00
2023-04-26T09:47:11.756Z,1.20
2023-04-26T09:49:48.830Z,1.50
2023-04-26T09:52:16.401Z,1.30
2023-04-26T09:54:51.815Z,1.20
2023-04-26T09:57:22.179Z,1.20
2023-04-26T09:59:53.535Z,1.33
2023-04-26T10:02:27.534Z,1.52
2023-04-26T10:04:56.715Z,1.55
2023-04-26T10:07:25.256Z,2.20
2023-04-26T10:09:51.847Z,2.17
2023-04-26T10:12:20.954Z,2.10
2023-04-26T10:14:48.680Z,2.42
2023-04-26T10:17:15.538Z,2.10
2023-04-26T10:19:46.715Z,2.38
2023-04-26T10:22:22.665Z,2.50
2023-04-26T10:24:50.659Z,2.00
2023-04-26T10:27:17.464Z,2.10
2023-04-26T10:29:56.564Z,2.20
2023-04-26T10:32:24.123Z,2.40
2023-04-26T10:35:14.182Z,2.28
2023-04-26T10:37:59.488Z,2.40
2023-04-26T10:40:27.616Z,2.20
2023-04-26T10:43:18.267Z,2.05
2023-04-26T10:45:46.643Z,2.38
2023-04-26T10:48:26.354Z,2.00
2023-04-26T10:51:02.143Z,2.30
2023-04-26T10:53:32.824Z,1.90
2023-04-26T10:55:59.433Z,1.90
2023-04-26T10:58:34.081Z,1.80
2023-04-26T11:01:08.534Z,2.13
2023-04-26T11:03:36.048Z,2.10
2023-04-26T11:06:10.232Z,2.20
2023-04-26T11:08:37.103Z,1.75
2023-04-26T11:11:03.673Z,2.60
2023-04-26T11:13:35.625Z,2.42
2023-04-26T11:16:08.467Z,2.50
2023-04-26T11:18:36.478Z,3.33
2023-04-26T11:21:04.515Z,2.00
2023-04-26T11:23:32.170Z,2.13
2023-04-26T11:26:03.664Z,2.30
2023-04-26T11:28:34.622Z,2.47
2023-04-26T11:31:03.013Z,1.75
2023-04-26T11:33:31.025Z,1.75
2023-04-26T11:35:58.655Z,2.05
2023-04-26T11:38:26.708Z,2.45
2023-04-26T11:40:56.448Z,1.80
2023-04-26T11:43:23.384Z,1.90
2023-04-26T11:45:50.112Z,1.90
2023-04-26T11:48:16.841Z,1.80
2023-04-26T11:50:43.726Z,1.90
2023-04-26T11:53:10.314Z,2.07
2023-04-26T11:55:37.003Z,2.20
2023-04-26T11:58:12.673Z,1.80
2023-04-26T12:01:04.708Z,2.15
2023-04-26T12:03:37.976Z,1.88
2023-04-26T12:06:06.295Z,2.27
2023-04-26T12:08:33.998Z,2.25
2023-04-26T12:11:02.336Z,1.90
2023-04-26T12:13:30.123Z,1.65
2023-04-26T12:15:56.669Z,1.90
2023-04-26T12:18:30.906Z,1.67
2023-04-26T12:21:01.844Z,1.92
2023-04-26T12:23:38.141Z,2.10
2023-04-26T12:26:05.629Z,2.20
2023-04-26T12:28:32.335Z,2.08
2023-04-26T12:31:01.143Z,2.03
2023-04-26T12:33:27.707Z,2.03
2023-04-26T12:35:54.397Z,1.92
2023-04-26T12:38:21.631Z,2.67
2023-04-26T12:40:48.352Z,2.03
2023-04-26T12:43:19.777Z,2.23
2023-04-26T12:45:46.986Z,2.40
2023-04-26T12:48:13.886Z,1.90
2023-04-26T12:50:40.833Z,2.90
2023-04-26T12:53:07.640Z,2.53
2023-04-26T12:55:34.343Z,2.20
2023-04-26T12:58:01.070Z,1.80
2023-04-26T13:00:27.736Z,2.40
2023-04-26T13:02:55.875Z,2.08
2023-04-26T13:05:24.833Z,2.08
2023-04-26T13:07:51.444Z,2.57
2023-04-26T13:10:18.438Z,2.35
2023-04-26T13:12:44.970Z,2.30
2023-04-26T13:15:30.196Z,2.33
2023-04-26T13:17:56.863Z,1.75
2023-04-26T13:20:25.704Z,1.60
2023-04-26T13:22:53.284Z,2.15
2023-04-26T13:25:20.044Z,2.05
2023-04-26T13:27:46.634Z,1.73
2023-04-26T13:30:14.241Z,2.10
2023-04-26T13:32:41.198Z,2.20
2023-04-26T13:35:08.513Z,1.90
2023-04-26T13:37:35.543Z,1.92
2023-04-26T13:40:02.314Z,2.10
2023-04-26T13:42:28.967Z,1.98
2023-04-26T13:44:55.643Z,1.53
2023-04-26T13:47:22.334Z,1.80
2023-04-26T13:49:48.990Z,1.70
2023-04-26T13:52:15.675Z,2.03
2023-04-26T13:54:42.223Z,1.92
2023-04-26T13:57:08.920Z,2.20
2023-04-26T13:59:35.597Z,2.30
2023-04-26T14:02:04.319Z,1.90
2023-04-26T14:04:31.109Z,1.80
2023-04-26T14:06:58.810Z,2.10
2023-04-26T14:09:25.590Z,1.90
2023-04-26T14:12:00.859Z,1.95
2023-04-26T14:14:34.787Z,2.03
2023-04-26T14:17:01.653Z,2.05
2023-04-26T14:19:28.218Z,1.65
2023-04-26T14:21:54.802Z,1.80
2023-04-26T14:24:21.437Z,2.00
2023-04-26T14:26:48.636Z,1.73
2023-04-26T14:29:15.262Z,2.00
2023-04-26T14:31:42.172Z,2.00
2023-04-26T14:34:08.746Z,1.97
2023-04-26T14:36:35.563Z,2.08
2023-04-26T14:39:02.194Z,2.25
2023-04-26T14:41:28.692Z,2.00
2023-04-26T14:43:56.026Z,2.28
2023-04-26T14:46:22.781Z,2.10
2023-04-26T14:48:49.557Z,1.85
2023-04-26T14:51:16.112Z,2.10
2023-04-26T14:53:42.692Z,2.15
2023-04-26T14:56:09.516Z,4.47
2023-04-26T14:58:36.324Z,2.97
2023-04-26T15:01:02.948Z,2.55
2023-04-26T15:03:29.801Z,2.40
2023-04-26T15:05:56.585Z,2.55
2023-04-26T15:08:23.164Z,2.40
2023-04-26T15:10:50.015Z,2.80
2023-04-26T15:13:17.213Z,2.40
2023-04-26T15:15:43.957Z,2.20
2023-04-26T15:18:10.751Z,9.40
2023-04-26T15:20:41.411Z,2.42
2023-04-26T15:23:08.531Z,2.50
2023-04-26T15:25:37.072Z,2.67
2023-04-26T15:28:04.213Z,2.70
2023-04-26T15:30:31.033Z,2.42
2023-04-26T15:32:57.818Z,2.35
2023-04-26T15:35:25.159Z,2.60
2023-04-26T15:37:53.879Z,2.80
2023-04-26T15:40:23.029Z,2.22
2023-04-26T15:42:51.321Z,2.13
2023-04-26T15:45:18.648Z,2.53
2023-04-26T15:47:45.597Z,2.23
2023-04-26T15:50:15.138Z,2.38
2023-04-26T15:52:42.218Z,2.63
2023-04-26T15:55:09.748Z,2.42
2023-04-26T15:57:37.831Z,2.60
2023-04-26T16:00:09.149Z,2.47
2023-04-26T16:02:36.741Z,2.10
2023-04-26T16:05:04.814Z,2.70
2023-04-26T16:07:31.810Z,2.60
2023-04-26T16:09:58.335Z,2.72
2023-04-26T16:12:25.068Z,3.33
2023-04-26T16:14:52.421Z,2.63
2023-04-26T16:17:19.324Z,2.38
2023-04-26T16:19:46.061Z,2.25
2023-04-26T16:22:12.641Z,2.50
2023-04-26T16:24:39.252Z,2.53
2023-04-26T16:27:06.024Z,2.90
2023-04-26T16:29:32.976Z,2.60
2023-04-26T16:31:59.840Z,2.63
2023-04-26T16:34:26.833Z,3.08
2023-04-26T16:36:53.796Z,3.07
2023-04-26T16:39:21.538Z,3.45
2023-04-26T16:41:48.898Z,2.78
2023-04-26T16:44:16.786Z,2.60
2023-04-26T16:46:43.539Z,2.67
2023-04-26T16:49:11.083Z,3.07
2023-04-26T16:51:41.989Z,2.83
2023-04-26T16:54:08.651Z,3.38
2023-04-26T16:56:35.406Z,2.80
2023-04-26T16:59:02.161Z,2.90
2023-04-26T17:01:29.270Z,2.87
2023-04-26T17:03:57.001Z,5.90
2023-04-26T17:06:23.702Z,3.35
2023-04-26T17:08:50.308Z,2.90
2023-04-26T17:11:17.173Z,2.95
2023-04-26T17:13:44.049Z,2.77
2023-04-26T17:16:11.071Z,2.72
2023-04-26T17:18:37.981Z,2.60
2023-04-26T17:21:05.559Z,2.97
2023-04-26T17:23:33.714Z,2.30
2023-04-26T17:26:03.252Z,2.50
2023-04-26T17:28:31.215Z,2.85
2023-04-26T17:30:57.942Z,2.85
2023-04-26T17:33:25.962Z,2.55
2023-04-26T17:35:52.642Z,2.60
2023-04-26T17:38:19.563Z,2.23
2023-04-26T17:40:46.192Z,2.60
2023-04-26T17:43:12.815Z,2.75
2023-04-26T17:45:40.177Z,2.90
2023-04-26T17:48:11.100Z,3.10
2023-04-26T17:50:37.772Z,2.70
2023-04-26T17:53:06.028Z,3.17
2023-04-26T17:55:33.045Z,2.88
2023-04-26T17:57:59.708Z,3.00
2023-04-26T18:00:26.295Z,3.20
2023-04-26T18:02:54.534Z,2.70
2023-04-26T18:05:21.635Z,3.03
2023-04-26T18:07:48.162Z,3.47
2023-04-26T18:10:14.842Z,2.80
2023-04-26T18:12:41.483Z,2.67
2023-04-26T18:15:08.502Z,3.53
2023-04-26T18:17:35.215Z,4.43
2023-04-26T18:20:01.850Z,3.40
2023-04-26T18:22:28.362Z,3.05
2023-04-26T18:24:54.980Z,2.50
2023-04-26T18:27:21.723Z,2.10
2023-04-26T18:29:49.310Z,2.80
2023-04-26T18:32:16.108Z,2.80
2023-04-26T18:34:44.068Z,2.53
2023-04-26T18:37:10.833Z,2.08
2023-04-26T18:39:37.370Z,3.07
2023-04-26T18:42:04.250Z,2.25
2023-04-26T18:44:30.843Z,2.25
2023-04-26T18:46:57.403Z,2.63
2023-04-26T18:49:25.413Z,2.70
2023-04-26T18:51:52.160Z,2.40
2023-04-26T18:54:18.976Z,1.98
2023-04-26T18:56:45.832Z,2.40
2023-04-26T18:59:12.996Z,2.60
2023-04-26T19:01:39.805Z,2.72
2023-04-26T19:04:08.501Z,3.00
2023-04-26T19:06:38.864Z,2.90
2023-04-26T19:09:06.579Z,2.65
2023-04-26T19:11:33.141Z,2.75
2023-04-26T19:13:59.664Z,2.47
2023-04-26T19:16:26.628Z,2.37
2023-04-26T19:18:53.289Z,2.42
2023-04-26T19:21:19.918Z,3.30
2023-04-26T19:23:46.795Z,3.90
2023-04-26T19:26:13.470Z,3.00
2023-04-26T19:28:40.801Z,2.63
2023-04-26T19:31:07.384Z,3.58
2023-04-26T19:33:34.115Z,3.95
2023-04-26T19:36:00.833Z,3.40
2023-04-26T19:38:27.451Z,3.40
2023-04-26T19:40:54.130Z,3.50
2023-04-26T19:43:21.097Z,3.45
2023-04-26T19:45:48.137Z,3.10
2023-04-26T19:48:15.059Z,3.80
2023-04-26T19:50:43.786Z,5.57
2023-04-26T19:53:12.638Z,4.17
2023-04-26T19:55:40.153Z,3.35
2023-04-26T19:58:07.445Z,3.67
2023-04-26T20:00:38.733Z,3.45
2023-04-26T20:03:06.115Z,3.20
2023-04-26T20:05:33.753Z,3.63
2023-04-26T20:08:00.984Z,3.72
2023-04-26T20:10:31.986Z,3.63
2023-04-26T20:12:59.314Z,3.55
2023-04-26T20:15:26.584Z,4.18
2023-04-26T20:17:53.230Z,3.90
2023-04-26T20:20:19.927Z,3.70
2023-04-26T20:22:47.560Z,3.30
2023-04-26T20:25:14.319Z,3.00
2023-04-26T20:27:40.908Z,3.13
2023-04-26T20:30:08.161Z,3.40
2023-04-26T20:32:34.718Z,3.10
2023-04-26T20:35:03.274Z,3.15
2023-04-26T20:37:30.554Z,3.28
2023-04-26T20:39:57.700Z,3.17
2023-04-26T20:42:25.136Z,3.27
2023-04-26T20:44:52.300Z,3.45
2023-04-26T20:47:19.268Z,3.78
2023-04-26T20:49:45.879Z,3.47
2023-04-26T20:52:12.874Z,3.90
2023-04-26T20:54:39.476Z,3.80
2023-04-26T20:57:06.457Z,3.33
2023-04-26T20:59:33.056Z,3.80
2023-04-26T21:02:02.016Z,3.50
2023-04-26T21:04:29.086Z,3.40
2023-04-26T21:06:55.937Z,3.77
2023-04-26T21:09:22.448Z,3.35
2023-04-26T21:11:48.933Z,3.55
2023-04-26T21:14:15.510Z,3.63
2023-04-26T21:16:42.317Z,3.72
2023-04-26T21:19:09.678Z,3.40
2023-04-26T21:21:36.526Z,3.75
2023-04-26T21:24:04.063Z,3.30
2023-04-26T21:26:30.666Z,3.53
2023-04-26T21:28:57.283Z,3.22
2023-04-26T21:31:23.997Z,3.27
2023-04-26T21:33:50.839Z,3.22
2023-04-26T21:36:17.673Z,3.22
2023-04-26T21:38:44.523Z,3.08
2023-04-26T21:41:11.277Z,3.50
2023-04-26T21:43:38.019Z,3.47
2023-04-26T21:46:05.054Z,3.50
2023-04-26T21:48:31.583Z,3.45
2023-04-26T21:50:58.238Z,4.55
2023-04-26T21:53:24.783Z,3.50
2023-04-26T21:55:55.414Z,3.57
2023-04-26T21:58:22.817Z,3.28
